Time;durP1;ratioP1;P1;durP2;ratioP2;P2;SDS_P1;SDS_P2;PMS_P1;PMS_P2;Temp;Humidity;BMP_temperature;BMP_pressure;BME280_temperature;BME280_humidity;BME280_pressure;Samples;Min_cycle;Max_cycle;Signal;HPM_P1;HPM_P2
2021/10/08 00:01:30;;;;;;;0.53;0.30;;;10.20;99.90;;;;;;5079720;28;20270;-81
2021/10/08 00:03:56;;;;;;;0.23;0.23;;;10.30;99.90;;;;;;5087411;28;20328;-81
2021/10/08 00:06:22;;;;;;;0.40;0.40;;;10.30;99.90;;;;;;5086698;28;20287;-81
2021/10/08 00:08:48;;;;;;;0.10;0.10;;;10.30;99.90;;;;;;5084303;28;20181;-82
2021/10/08 00:11:14;;;;;;;0.10;0.10;;;10.40;99.90;;;;;;5088560;28;20186;-81
2021/10/08 00:13:39;;;;;;;0.20;0.20;;;10.50;99.90;;;;;;5086601;28;20246;-81
2021/10/08 00:16:05;;;;;;;0.17;0.17;;;10.50;99.90;;;;;;5082721;28;20208;-81
2021/10/08 00:18:35;;;;;;;0.50;0.30;;;10.50;99.90;;;;;;5087660;28;20658;-81
2021/10/08 00:21:01;;;;;;;0.10;0.10;;;10.50;99.90;;;;;;5081540;28;20184;-81
2021/10/08 00:23:27;;;;;;;0.10;0.10;;;10.50;99.90;;;;;;5093078;28;20182;-81
2021/10/08 00:25:53;;;;;;;0.10;0.10;;;10.50;99.90;;;;;;5095995;28;20210;-81
2021/10/08 00:28:18;;;;;;;0.30;0.30;;;10.50;99.90;;;;;;5089282;28;20836;-82
2021/10/08 00:30:44;;;;;;;0.10;0.10;;;10.50;99.90;;;;;;5088034;28;20211;-81
2021/10/08 00:33:10;;;;;;;3.37;0.40;;;10.60;99.90;;;;;;5088469;28;20202;-82
2021/10/08 00:35:35;;;;;;;0.20;0.20;;;10.60;99.90;;;;;;5084162;28;20206;-81
2021/10/08 00:38:04;;;;;;;0.20;0.20;;;10.50;99.90;;;;;;5085154;28;20641;-81
2021/10/08 00:40:33;;;;;;;0.30;0.30;;;10.40;99.90;;;;;;5093886;28;20183;-81
2021/10/08 00:42:59;;;;;;;0.30;0.30;;;10.40;99.90;;;;;;5100253;28;20181;-82
2021/10/08 00:45:25;;;;;;;0.10;0.10;;;10.50;99.90;;;;;;5089693;28;20568;-80
2021/10/08 00:48:04;;;;;;;0.40;0.20;;;10.50;99.90;;;;;;5085023;28;20180;-81
2021/10/08 00:50:30;;;;;;;0.40;0.40;;;10.40;99.90;;;;;;5091551;28;20265;-81
2021/10/08 00:52:56;;;;;;;5.27;0.20;;;10.40;99.90;;;;;;5086242;28;20174;-81
2021/10/08 00:55:22;;;;;;;0.10;0.10;;;10.40;99.90;;;;;;5106265;28;20732;-81
2021/10/08 00:57:47;;;;;;;0.10;0.10;;;10.40;99.90;;;;;;5084638;28;20182;-81
2021/10/08 01:00:14;;;;;;;0.10;0.10;;;10.40;99.90;;;;;;5085950;28;20182;-81
2021/10/08 01:02:40;;;;;;;0.20;0.20;;;10.30;99.90;;;;;;5075575;28;20183;-81
2021/10/08 01:05:07;;;;;;;0.10;0.10;;;10.30;99.90;;;;;;5079557;28;20290;-81
2021/10/08 01:07:32;;;;;;;0.10;0.10;;;10.30;99.90;;;;;;5081475;28;20197;-81
2021/10/08 01:09:58;;;;;;;0.10;0.10;;;10.30;99.90;;;;;;5092333;28;20643;-81
2021/10/08 01:12:23;;;;;;;0.00;0.00;;;10.30;99.90;;;;;;5079003;28;20188;-81
2021/10/08 01:14:49;;;;;;;0.10;0.10;;;10.30;99.90;;;;;;5085368;28;20202;-81
2021/10/08 01:17:19;;;;;;;0.10;0.10;;;10.40;99.90;;;;;;5078751;28;20650;-81
2021/10/08 01:19:44;;;;;;;0.10;0.10;;;10.40;99.90;;;;;;5090733;28;20191;-81
2021/10/08 01:22:10;;;;;;;0.40;0.40;;;10.40;99.90;;;;;;5088650;28;20187;-82
2021/10/08 01:24:37;;;;;;;0.00;0.00;;;10.50;99.90;;;;;;5088702;28;20203;-81
2021/10/08 01:27:06;;;;;;;0.10;0.10;;;10.50;99.90;;;;;;5085587;28;20210;-81
2021/10/08 01:29:33;;;;;;;0.10;0.10;;;10.50;99.90;;;;;;5088891;28;20206;-81
2021/10/08 01:32:00;;;;;;;0.10;0.10;;;10.60;99.90;;;;;;5091080;28;20257;-81
2021/10/08 01:34:25;;;;;;;0.20;0.10;;;10.70;99.90;;;;;;5090290;28;20199;-81
2021/10/08 01:36:51;;;;;;;0.20;0.20;;;10.70;99.90;;;;;;5084689;28;20183;-81
2021/10/08 01:39:17;;;;;;;0.10;0.10;;;10.60;99.90;;;;;;5088885;28;20217;-81
2021/10/08 01:41:43;;;;;;;0.73;0.33;;;10.70;99.90;;;;;;5089646;28;20210;-81
2021/10/08 01:44:08;;;;;;;0.10;0.10;;;10.70;99.90;;;;;;5082670;28;20214;-81
2021/10/08 01:46:34;;;;;;;0.20;0.20;;;10.70;99.90;;;;;;5083065;28;20211;-81
2021/10/08 01:48:59;;;;;;;0.10;0.10;;;10.80;99.90;;;;;;5085214;28;20277;-81
2021/10/08 01:51:25;;;;;;;0.10;0.10;;;10.70;99.90;;;;;;5080796;28;20714;-81
2021/10/08 01:53:51;;;;;;;0.10;0.10;;;10.60;99.90;;;;;;5090814;28;20578;-81
2021/10/08 01:56:16;;;;;;;0.27;0.20;;;10.50;99.90;;;;;;5087029;28;20200;-81
2021/10/08 01:58:42;;;;;;;0.20;0.20;;;10.50;99.90;;;;;;5090739;28;20191;-81
2021/10/08 02:01:08;;;;;;;0.10;0.10;;;10.60;99.90;;;;;;5080984;28;20189;-81
2021/10/08 02:03:34;;;;;;;0.30;0.30;;;10.70;99.90;;;;;;5081670;28;20184;-81
2021/10/08 02:05:59;;;;;;;0.30;0.10;;;10.70;99.90;;;;;;5077204;28;20294;-81
2021/10/08 02:08:25;;;;;;;0.63;0.30;;;10.80;99.90;;;;;;5084379;28;20228;-81
2021/10/08 02:10:51;;;;;;;0.10;0.10;;;10.80;99.90;;;;;;5101148;28;20685;-81
2021/10/08 02:13:18;;;;;;;0.17;0.17;;;10.90;99.90;;;;;;5083909;28;20654;-82
2021/10/08 02:15:45;;;;;;;0.00;0.00;;;10.90;99.90;;;;;;5082547;28;20211;-81
2021/10/08 02:18:11;;;;;;;0.10;0.10;;;10.90;99.90;;;;;;5083046;28;20675;-81
2021/10/08 02:20:37;;;;;;;0.30;0.20;;;10.90;99.90;;;;;;5084127;28;20192;-81
2021/10/08 02:23:02;;;;;;;0.10;0.10;;;10.60;99.90;;;;;;5082070;28;20194;-81
2021/10/08 02:25:28;;;;;;;0.17;0.17;;;10.60;99.90;;;;;;5084797;28;20709;-81
2021/10/08 02:27:54;;;;;;;0.10;0.10;;;10.60;99.90;;;;;;5090226;28;20228;-81
2021/10/08 02:30:19;;;;;;;0.30;0.30;;;10.70;99.90;;;;;;5080046;28;20188;-81
2021/10/08 02:32:45;;;;;;;0.17;0.17;;;10.80;99.90;;;;;;5089277;28;20229;-81
2021/10/08 02:35:10;;;;;;;0.20;0.20;;;10.80;99.90;;;;;;5079839;28;20282;-81
2021/10/08 02:37:36;;;;;;;0.10;0.10;;;10.90;99.90;;;;;;5084872;28;20187;-81
2021/10/08 02:40:04;;;;;;;0.10;0.10;;;10.90;99.90;;;;;;5090044;28;20377;-81
2021/10/08 02:42:29;;;;;;;0.30;0.30;;;10.90;99.90;;;;;;5090715;28;20214;-82
2021/10/08 02:44:55;;;;;;;0.13;0.13;;;10.80;99.90;;;;;;5095793;28;20265;-81
2021/10/08 02:47:20;;;;;;;0.73;0.73;;;10.60;99.90;;;;;;5085880;28;20214;-81
2021/10/08 02:49:46;;;;;;;0.20;0.20;;;10.60;99.90;;;;;;5084992;28;20218;-81
2021/10/08 02:52:12;;;;;;;0.10;0.10;;;10.60;99.90;;;;;;5087409;28;20183;-81
2021/10/08 02:54:37;;;;;;;0.20;0.20;;;10.60;99.90;;;;;;5084929;28;20203;-81
2021/10/08 02:57:03;;;;;;;0.23;0.20;;;10.50;99.90;;;;;;5089084;28;20187;-81
2021/10/08 02:59:29;;;;;;;0.33;0.33;;;10.40;99.90;;;;;;5084578;28;20565;-81
2021/10/08 03:01:54;;;;;;;2.47;0.27;;;10.40;99.90;;;;;;5083083;28;20214;-81
2021/10/08 03:04:20;;;;;;;0.50;0.50;;;10.30;99.90;;;;;;5086475;28;20213;-81
2021/10/08 03:06:45;;;;;;;0.17;0.17;;;10.30;99.90;;;;;;5081331;28;20307;-81
2021/10/08 03:09:11;;;;;;;0.03;0.03;;;10.30;99.90;;;;;;5091395;28;20224;-81
2021/10/08 03:11:37;;;;;;;0.17;0.17;;;10.10;99.90;;;;;;5081368;28;20671;-81
2021/10/08 03:14:03;;;;;;;0.10;0.10;;;10.20;99.90;;;;;;5085532;28;20185;-81
2021/10/08 03:16:29;;;;;;;0.10;0.10;;;10.20;99.90;;;;;;5085337;28;20541;-81
2021/10/08 03:18:54;;;;;;;0.83;0.20;;;10.20;99.90;;;;;;5083473;28;20176;-81
2021/10/08 03:21:20;;;;;;;0.10;0.10;;;10.20;99.90;;;;;;5090562;28;20197;-81
2021/10/08 03:23:45;;;;;;;0.30;0.30;;;10.10;99.90;;;;;;5078913;28;20187;-81
2021/10/08 03:26:11;;;;;;;0.03;0.03;;;10.10;99.90;;;;;;5091222;28;20258;-81
2021/10/08 03:28:37;;;;;;;0.07;0.07;;;10.10;99.90;;;;;;5091825;28;20248;-81
2021/10/08 03:31:04;;;;;;;0.10;0.10;;;10.10;99.90;;;;;;5085368;28;20191;-81
2021/10/08 03:33:30;;;;;;;0.10;0.10;;;10.10;99.90;;;;;;5083985;28;20233;-81
2021/10/08 03:35:55;;;;;;;0.10;0.10;;;10.00;99.90;;;;;;5081704;28;20192;-81
2021/10/08 03:38:21;;;;;;;0.20;0.20;;;10.10;99.90;;;;;;5091649;28;20184;-81
2021/10/08 03:43:28;;;;;;;0.20;0.20;;;10.00;99.90;;;;;;5097509;28;20201;-81
2021/10/08 03:46:00;;;;;;;0.20;0.20;;;10.00;99.90;;;;;;5088885;28;20689;-81
2021/10/08 03:50:57;;;;;;;0.10;0.10;;;10.00;99.90;;;;;;5087524;28;20175;-81
2021/10/08 03:53:22;;;;;;;0.10;0.10;;;10.00;99.90;;;;;;5083947;28;20527;-81
2021/10/08 03:55:48;;;;;;;0.20;0.20;;;9.90;99.90;;;;;;5087165;28;20211;-81
2021/10/08 03:58:13;;;;;;;0.10;0.10;;;9.90;99.90;;;;;;5088758;28;20190;-82
2021/10/08 04:00:39;;;;;;;0.10;0.10;;;10.00;99.90;;;;;;5086208;28;20180;-81
2021/10/08 04:03:05;;;;;;;0.10;0.10;;;9.90;99.90;;;;;;5087442;28;20191;-81
2021/10/08 04:05:30;;;;;;;0.10;0.10;;;9.90;99.90;;;;;;5088340;28;20211;-81
2021/10/08 04:07:56;;;;;;;0.47;0.40;;;9.90;99.90;;;;;;5085359;28;20187;-81
2021/10/08 04:10:21;;;;;;;0.13;0.13;;;10.00;99.90;;;;;;5090589;28;20193;-81
2021/10/08 04:12:47;;;;;;;0.10;0.10;;;9.90;99.90;;;;;;5087380;28;20191;-81
2021/10/08 04:15:12;;;;;;;0.20;0.20;;;10.00;99.90;;;;;;5083094;28;20231;-81
2021/10/08 04:17:38;;;;;;;0.20;0.20;;;10.00;99.90;;;;;;5088670;28;20188;-81
2021/10/08 04:20:04;;;;;;;0.50;0.50;;;9.90;99.90;;;;;;5090321;28;20185;-81
2021/10/08 04:22:30;;;;;;;0.20;0.20;;;9.80;99.90;;;;;;5083556;28;20244;-80
2021/10/08 04:24:55;;;;;;;0.43;0.33;;;9.80;99.90;;;;;;5088732;28;20605;-81
2021/10/08 04:27:21;;;;;;;0.10;0.10;;;9.80;99.90;;;;;;5083294;28;20211;-81
2021/10/08 04:29:47;;;;;;;0.83;0.20;;;9.80;99.90;;;;;;5091346;28;20202;-81
2021/10/08 04:32:12;;;;;;;0.13;0.13;;;9.80;99.90;;;;;;5105624;28;20229;-81
2021/10/08 04:34:38;;;;;;;0.10;0.10;;;9.70;99.90;;;;;;5087309;28;20194;-81
2021/10/08 04:37:03;;;;;;;0.23;0.23;;;9.70;99.90;;;;;;5088524;28;20189;-81
2021/10/08 04:39:29;;;;;;;0.20;0.20;;;9.70;99.90;;;;;;5088485;28;20246;-80
2021/10/08 04:41:54;;;;;;;0.23;0.23;;;9.70;99.90;;;;;;5088253;28;20259;-81
2021/10/08 04:44:20;;;;;;;0.13;0.13;;;9.70;99.90;;;;;;5088379;28;20284;-80
2021/10/08 04:46:46;;;;;;;0.27;0.23;;;9.60;99.90;;;;;;5090386;28;20305;-82
2021/10/08 04:49:11;;;;;;;0.10;0.10;;;9.60;99.90;;;;;;5095259;28;20657;-82
2021/10/08 04:51:37;;;;;;;0.33;0.30;;;9.60;99.90;;;;;;5084356;28;20185;-82
2021/10/08 04:54:03;;;;;;;0.47;0.20;;;9.60;99.90;;;;;;5089190;28;20228;-83
2021/10/08 04:56:32;;;;;;;0.20;0.20;;;9.60;99.90;;;;;;5090327;28;20271;-82
2021/10/08 04:58:59;;;;;;;0.13;0.13;;;9.60;99.90;;;;;;5077725;28;20183;-81
2021/10/08 05:01:24;;;;;;;0.10;0.10;;;9.50;99.90;;;;;;5083704;28;20198;-80
2021/10/08 05:03:50;;;;;;;0.53;0.40;;;9.50;99.90;;;;;;5093112;28;20273;-81
2021/10/08 05:06:15;;;;;;;0.30;0.30;;;9.50;99.90;;;;;;5079658;28;20205;-80
2021/10/08 05:08:41;;;;;;;0.20;0.20;;;9.30;99.90;;;;;;5085922;28;20188;-82
2021/10/08 05:11:07;;;;;;;0.10;0.10;;;9.40;99.90;;;;;;5092437;28;20205;-82
2021/10/08 05:13:32;;;;;;;0.30;0.30;;;9.30;99.90;;;;;;5094295;28;20271;-83
2021/10/08 05:15:58;;;;;;;0.30;0.30;;;9.20;99.90;;;;;;5088655;28;20231;-83
2021/10/08 05:18:23;;;;;;;0.20;0.20;;;9.20;99.90;;;;;;5083068;28;20257;-82
2021/10/08 05:20:49;;;;;;;0.10;0.10;;;9.00;99.90;;;;;;5088890;28;20191;-82
2021/10/08 05:23:14;;;;;;;0.30;0.30;;;9.00;99.90;;;;;;5081039;28;20193;-82
2021/10/08 05:25:40;;;;;;;0.10;0.10;;;8.90;99.90;;;;;;5086991;28;20211;-82
2021/10/08 05:28:07;;;;;;;0.20;0.20;;;9.10;99.90;;;;;;5082027;28;20195;-82
2021/10/08 05:30:32;;;;;;;0.23;0.23;;;9.20;99.90;;;;;;5080093;28;20229;-82
2021/10/08 05:32:58;;;;;;;0.20;0.20;;;9.30;99.90;;;;;;5083507;28;20182;-82
2021/10/08 05:35:24;;;;;;;0.30;0.30;;;9.20;99.90;;;;;;5081146;28;20215;-82
2021/10/08 05:37:50;;;;;;;0.20;0.20;;;9.10;99.90;;;;;;5086751;28;20548;-82
2021/10/08 05:40:16;;;;;;;0.53;0.53;;;9.10;99.90;;;;;;5087433;28;20283;-81
2021/10/08 05:42:41;;;;;;;0.10;0.10;;;9.20;99.90;;;;;;5091037;28;20659;-83
2021/10/08 05:45:07;;;;;;;0.63;0.60;;;9.20;99.90;;;;;;5089991;28;20209;-84
2021/10/08 05:47:33;;;;;;;0.30;0.30;;;9.20;99.90;;;;;;5092031;28;20575;-84
2021/10/08 05:49:59;;;;;;;0.10;0.10;;;9.30;99.90;;;;;;5082752;28;20175;-84
2021/10/08 05:52:25;;;;;;;0.50;0.50;;;9.20;99.90;;;;;;5087527;28;20173;-83
2021/10/08 05:54:51;;;;;;;0.20;0.20;;;9.10;99.90;;;;;;5090018;28;20201;-84
2021/10/08 05:57:16;;;;;;;2.57;0.17;;;9.00;99.90;;;;;;5099177;28;20187;-84
2021/10/08 05:59:42;;;;;;;0.20;0.20;;;9.00;99.90;;;;;;5084778;28;20185;-83
2021/10/08 06:02:07;;;;;;;0.67;0.67;;;8.90;99.90;;;;;;5085044;28;20183;-83
2021/10/08 06:04:33;;;;;;;0.57;0.20;;;8.80;99.90;;;;;;5075692;28;20246;-84
2021/10/08 06:06:59;;;;;;;0.10;0.10;;;8.90;99.90;;;;;;5076967;28;20724;-83
2021/10/08 06:09:24;;;;;;;0.33;0.33;;;9.00;99.90;;;;;;5087302;28;20269;-84
2021/10/08 06:11:50;;;;;;;0.10;0.10;;;9.00;99.90;;;;;;5088378;28;20228;-83
2021/10/08 06:14:15;;;;;;;0.10;0.10;;;9.10;99.90;;;;;;5082869;28;20191;-83
2021/10/08 06:16:41;;;;;;;0.27;0.27;;;9.40;99.90;;;;;;5077859;28;20274;-83
2021/10/08 06:19:07;;;;;;;0.50;0.30;;;9.40;99.90;;;;;;5085896;28;20195;-84
2021/10/08 06:21:32;;;;;;;0.20;0.20;;;9.60;99.90;;;;;;5086155;28;20599;-83
2021/10/08 06:23:58;;;;;;;0.20;0.20;;;9.80;99.90;;;;;;5084978;28;20198;-83
2021/10/08 06:26:23;;;;;;;0.10;0.10;;;9.90;99.90;;;;;;5081150;28;20229;-84
2021/10/08 06:28:49;;;;;;;0.30;0.17;;;10.00;99.90;;;;;;5079523;28;20178;-83
2021/10/08 06:31:16;;;;;;;0.40;0.40;;;10.20;99.90;;;;;;5089469;28;20215;-84
2021/10/08 06:33:41;;;;;;;0.10;0.10;;;10.30;99.90;;;;;;5101351;28;20191;-84
2021/10/08 06:36:07;;;;;;;0.60;0.60;;;10.50;99.90;;;;;;5085312;28;20278;-83
2021/10/08 06:38:32;;;;;;;0.20;0.20;;;10.50;99.90;;;;;;5083208;28;20185;-84
2021/10/08 06:40:58;;;;;;;0.20;0.20;;;10.60;99.90;;;;;;5084029;28;20575;-83
2021/10/08 06:43:23;;;;;;;0.17;0.17;;;10.70;99.90;;;;;;5079689;28;20184;-83
2021/10/08 06:45:49;;;;;;;0.30;0.30;;;10.90;99.90;;;;;;5068408;28;20232;-82
2021/10/08 06:48:15;;;;;;;1.20;0.60;;;11.00;99.90;;;;;;5058413;28;20538;-83
2021/10/08 06:50:40;;;;;;;0.20;0.20;;;10.80;99.90;;;;;;5071671;28;20191;-82
2021/10/08 06:53:07;;;;;;;0.20;0.20;;;11.00;99.90;;;;;;5086830;28;20174;-83
2021/10/08 06:55:32;;;;;;;0.10;0.10;;;11.20;99.90;;;;;;5091650;28;20214;-82
2021/10/08 06:57:58;;;;;;;0.20;0.20;;;11.40;99.90;;;;;;5078007;28;20188;-83
2021/10/08 07:00:24;;;;;;;0.20;0.20;;;11.50;99.90;;;;;;5068204;28;20636;-82
2021/10/08 07:02:52;;;;;;;0.10;0.10;;;11.70;99.90;;;;;;5079573;28;20183;-83
2021/10/08 07:05:18;;;;;;;0.20;0.20;;;11.90;99.90;;;;;;5077361;28;20685;-82
2021/10/08 07:07:44;;;;;;;0.10;0.10;;;12.00;99.90;;;;;;5096692;28;20182;-82
2021/10/08 07:10:10;;;;;;;0.20;0.20;;;12.10;99.90;;;;;;5090985;28;20714;-84
2021/10/08 07:12:36;;;;;;;0.20;0.20;;;12.40;99.90;;;;;;5075148;28;20177;-84
2021/10/08 07:15:05;;;;;;;0.30;0.30;;;12.50;99.90;;;;;;5082574;28;20245;-84
2021/10/08 07:17:30;;;;;;;0.20;0.20;;;12.50;99.90;;;;;;5090888;28;20186;-83
2021/10/08 07:19:56;;;;;;;0.40;0.40;;;12.60;99.90;;;;;;5088317;28;20176;-83
2021/10/08 07:22:23;;;;;;;1.03;0.73;;;12.70;99.90;;;;;;5080580;28;20207;-83
2021/10/08 07:24:49;;;;;;;0.33;0.30;;;12.70;99.90;;;;;;5087822;28;20731;-83
2021/10/08 07:27:16;;;;;;;0.80;0.80;;;12.80;99.90;;;;;;5041781;28;1086090;-84
2021/10/08 07:29:41;;;;;;;2.07;0.33;;;13.00;99.90;;;;;;5090082;28;20204;-84
2021/10/08 07:32:07;;;;;;;0.30;0.30;;;13.00;99.90;;;;;;5092239;28;20561;-83
2021/10/08 07:34:33;;;;;;;0.30;0.30;;;13.20;99.90;;;;;;5083664;28;20239;-84
2021/10/08 07:36:59;;;;;;;0.47;0.47;;;13.30;99.90;;;;;;5085113;28;20181;-83
2021/10/08 07:39:24;;;;;;;0.37;0.30;;;13.40;99.90;;;;;;5086768;28;20193;-83
2021/10/08 07:41:50;;;;;;;0.10;0.10;;;13.50;99.90;;;;;;5081806;28;20184;-83
2021/10/08 07:44:16;;;;;;;0.30;0.30;;;13.70;99.90;;;;;;5074409;28;20192;-84
2021/10/08 07:46:42;;;;;;;0.40;0.40;;;13.80;99.90;;;;;;5091287;28;20200;-83
2021/10/08 07:49:07;;;;;;;0.20;0.20;;;14.00;99.90;;;;;;5087485;28;20575;-83
2021/10/08 07:51:33;;;;;;;0.30;0.30;;;14.10;99.90;;;;;;5084680;28;20272;-83
2021/10/08 07:53:58;;;;;;;0.40;0.40;;;14.30;99.90;;;;;;5091487;28;20176;-84
2021/10/08 07:56:25;;;;;;;0.90;0.20;;;14.40;99.90;;;;;;5083466;28;20212;-84
2021/10/08 07:58:50;;;;;;;0.50;0.40;;;14.50;99.90;;;;;;5084304;28;20653;-83
2021/10/08 08:01:16;;;;;;;0.20;0.20;;;14.70;99.90;;;;;;5080598;28;20181;-83
2021/10/08 08:03:41;;;;;;;0.10;0.10;;;14.80;99.90;;;;;;5088148;28;20193;-84
2021/10/08 08:06:07;;;;;;;0.30;0.30;;;15.00;99.90;;;;;;5082801;28;20288;-83
2021/10/08 08:08:32;;;;;;;1.07;0.77;;;15.10;99.90;;;;;;5089592;28;20182;-82
2021/10/08 08:10:58;;;;;;;0.40;0.40;;;15.20;99.90;;;;;;5083024;28;20183;-83
2021/10/08 08:13:24;;;;;;;0.60;0.60;;;15.40;99.90;;;;;;5082328;28;20177;-83
2021/10/08 08:15:49;;;;;;;0.63;0.63;;;15.50;99.90;;;;;;5083774;28;20955;-83
2021/10/08 08:18:15;;;;;;;0.30;0.30;;;15.60;99.90;;;;;;5097103;28;20254;-84
2021/10/08 08:20:42;;;;;;;0.40;0.40;;;15.70;99.90;;;;;;5083342;28;20182;-84
2021/10/08 08:23:07;;;;;;;0.40;0.40;;;15.90;99.90;;;;;;5077777;28;20187;-83
2021/10/08 08:25:36;;;;;;;3.60;0.60;;;16.00;99.90;;;;;;5074115;28;20246;-84
2021/10/08 08:28:02;;;;;;;0.27;0.27;;;16.20;99.90;;;;;;5086479;28;20210;-85
2021/10/08 08:30:28;;;;;;;0.23;0.23;;;16.40;99.90;;;;;;5087178;28;20183;-83
2021/10/08 08:32:54;;;;;;;0.30;0.30;;;16.50;99.90;;;;;;5077887;28;20248;-82
2021/10/08 08:35:19;;;;;;;0.20;0.20;;;16.60;99.90;;;;;;5080839;28;20201;-81
2021/10/08 08:37:45;;;;;;;0.20;0.20;;;16.80;99.90;;;;;;5097650;28;20695;-82
2021/10/08 08:40:11;;;;;;;0.23;0.23;;;16.90;99.90;;;;;;5082982;28;20188;-82
2021/10/08 08:42:37;;;;;;;0.43;0.43;;;17.00;99.90;;;;;;5086777;28;20195;-82
2021/10/08 08:45:04;;;;;;;0.27;0.27;;;17.10;99.90;;;;;;5077862;28;20765;-86
2021/10/08 08:47:29;;;;;;;0.60;0.60;;;17.20;99.90;;;;;;5080717;28;20208;-81
2021/10/08 08:49:55;;;;;;;0.87;0.30;;;17.30;99.90;;;;;;5095132;28;20186;-82
2021/10/08 08:52:21;;;;;;;0.50;0.50;;;17.40;99.90;;;;;;5101593;28;20215;-83
2021/10/08 08:54:47;;;;;;;0.90;0.60;;;17.40;99.90;;;;;;5081915;28;20300;-82
2021/10/08 08:57:15;;;;;;;0.43;0.43;;;17.60;99.90;;;;;;5082610;28;20609;-81
2021/10/08 09:00:03;;;;;;;1.30;0.47;;;17.40;99.90;;;;;;5087214;28;20219;-80
2021/10/08 09:02:30;;;;;;;0.60;0.60;;;17.30;99.90;;;;;;5084311;28;20235;-81
2021/10/08 09:04:56;;;;;;;1.10;1.00;;;17.50;99.90;;;;;;5086306;28;20328;-81
2021/10/08 09:07:23;;;;;;;0.93;0.50;;;17.30;99.90;;;;;;5087414;28;20314;-81
2021/10/08 09:09:49;;;;;;;0.50;0.50;;;17.50;99.90;;;;;;5082720;28;20233;-81
2021/10/08 09:12:15;;;;;;;0.50;0.37;;;17.30;99.90;;;;;;5108057;28;20219;-81
2021/10/08 09:14:40;;;;;;;2.87;1.60;;;17.70;99.90;;;;;;5086608;28;20682;-81
2021/10/08 09:17:17;;;;;;;0.87;0.87;;;17.50;99.90;;;;;;5097138;28;20192;-81
2021/10/08 09:19:49;;;;;;;0.47;0.47;;;17.20;99.90;;;;;;5088345;28;20181;-81
2021/10/08 09:22:16;;;;;;;0.20;0.20;;;17.10;99.90;;;;;;5071314;28;20196;-81
2021/10/08 09:24:41;;;;;;;0.87;0.50;;;17.00;99.90;;;;;;5088743;28;20200;-81
2021/10/08 09:27:13;;;;;;;0.33;0.30;;;17.20;99.90;;;;;;5084730;28;20565;-81
2021/10/08 09:29:53;;;;;;;0.40;0.40;;;17.30;99.90;;;;;;5089855;28;20226;-81
2021/10/08 09:32:21;;;;;;;0.57;0.57;;;17.40;99.90;;;;;;5087121;28;20205;-80
2021/10/08 09:34:47;;;;;;;1.27;0.67;;;17.70;99.90;;;;;;5088744;28;20202;-81
2021/10/08 09:37:15;;;;;;;0.40;0.40;;;18.00;99.90;;;;;;5071909;28;20311;-81
2021/10/08 09:39:41;;;;;;;0.30;0.30;;;18.10;99.90;;;;;;5085262;28;20194;-81
2021/10/08 09:42:12;;;;;;;0.70;0.70;;;18.00;99.90;;;;;;5092101;28;20257;-81
2021/10/08 09:44:50;;;;;;;0.30;0.30;;;17.50;99.90;;;;;;5088623;28;20215;-82
2021/10/08 09:47:21;;;;;;;0.50;0.50;;;17.80;99.90;;;;;;5084961;28;20223;-81
2021/10/08 09:49:49;;;;;;;0.23;0.23;;;17.60;99.90;;;;;;5085642;28;20196;-81
2021/10/08 09:52:29;;;;;;;0.37;0.37;;;17.60;99.90;;;;;;5077489;28;20888;-81
2021/10/08 09:55:02;;;;;;;0.33;0.33;;;17.30;99.90;;;;;;5082575;28;20665;-81
2021/10/08 09:57:28;;;;;;;0.73;0.73;;;17.60;99.90;;;;;;5093984;28;20673;-81
2021/10/08 09:59:55;;;;;;;0.30;0.30;;;17.60;99.90;;;;;;5089575;28;20183;-81
2021/10/08 10:02:22;;;;;;;0.93;0.30;;;17.70;99.90;;;;;;5089686;28;20187;-81
2021/10/08 10:04:52;;;;;;;0.47;0.47;;;17.60;99.90;;;;;;5094806;28;20287;-81
2021/10/08 10:07:20;;;;;;;1.07;0.83;;;17.40;99.90;;;;;;5102403;28;20210;-81
2021/10/08 10:09:47;;;;;;;0.53;0.53;;;17.50;99.90;;;;;;5080245;28;20185;-80
2021/10/08 10:12:15;;;;;;;0.30;0.30;;;17.50;99.90;;;;;;5081227;28;20189;-81
2021/10/08 10:14:45;;;;;;;0.50;0.50;;;17.50;99.90;;;;;;5084438;28;20253;-81
2021/10/08 10:17:15;;;;;;;0.40;0.40;;;17.50;99.90;;;;;;5080691;28;20220;-81
2021/10/08 10:19:46;;;;;;;0.60;0.60;;;17.70;99.90;;;;;;5091554;28;20180;-81
2021/10/08 10:22:18;;;;;;;0.37;0.30;;;17.70;99.90;;;;;;5083539;28;20184;-81
2021/10/08 10:24:47;;;;;;;0.57;0.57;;;17.80;99.90;;;;;;5083716;28;20201;-81
2021/10/08 10:27:15;;;;;;;0.50;0.50;;;18.00;99.90;;;;;;5076448;28;20594;-81
2021/10/08 10:29:43;;;;;;;0.50;0.50;;;18.00;99.90;;;;;;5077513;28;20249;-81
2021/10/08 10:32:10;;;;;;;1.57;1.47;;;18.20;99.90;;;;;;5079859;28;20263;-81
2021/10/08 10:34:37;;;;;;;0.80;0.80;;;18.00;99.90;;;;;;5081313;28;20210;-81
2021/10/08 10:37:03;;;;;;;0.60;0.50;;;18.10;99.90;;;;;;5083132;28;20584;-82
2021/10/08 10:39:30;;;;;;;0.93;0.87;;;18.40;99.90;;;;;;5086343;28;20191;-81
2021/10/08 10:42:02;;;;;;;2.17;0.90;;;18.70;99.90;;;;;;5073401;28;20181;-80
2021/10/08 10:44:40;;;;;;;0.97;0.93;;;18.40;99.90;;;;;;5076978;28;20209;-81
2021/10/08 10:47:26;;;;;;;0.87;0.87;;;18.00;99.90;;;;;;5074707;28;20236;-81
2021/10/08 10:50:20;;;;;;;1.47;0.73;;;17.60;99.90;;;;;;5086065;28;20178;-81
2021/10/08 10:52:55;;;;;;;4.90;0.87;;;17.90;99.90;;;;;;5087945;28;20237;-81
2021/10/08 10:55:23;;;;;;;1.20;0.83;;;18.10;99.90;;;;;;5093557;28;20200;-81
2021/10/08 10:57:55;;;;;;;0.40;0.40;;;18.30;99.90;;;;;;5083771;28;20211;-81
2021/10/08 11:00:29;;;;;;;0.87;0.87;;;18.90;99.90;;;;;;5078393;28;20184;-81
2021/10/08 11:03:00;;;;;;;2.37;1.53;;;19.10;99.90;;;;;;5087262;28;20690;-81
2021/10/08 11:05:27;;;;;;;1.33;1.27;;;19.70;99.90;;;;;;5081633;28;20199;-81
2021/10/08 11:08:11;;;;;;;1.20;0.80;;;19.60;99.90;;;;;;5086162;28;20173;-80
2021/10/08 11:10:57;;;;;;;1.63;0.80;;;19.20;99.90;;;;;;5082740;28;20194;-81
2021/10/08 11:13:30;;;;;;;0.57;0.57;;;18.70;99.90;;;;;;5070626;28;20181;-80
2021/10/08 11:16:07;;;;;;;1.43;1.23;;;19.00;99.90;;;;;;5082698;28;20207;-81
2021/10/08 11:18:36;;;;;;;0.97;0.97;;;18.40;99.90;;;;;;5088132;28;20186;-81
2021/10/08 11:21:02;;;;;;;1.10;0.93;;;18.60;99.90;;;;;;5078130;28;20195;-81
2021/10/08 11:23:32;;;;;;;3.33;0.93;;;18.90;99.90;;;;;;5079830;28;20184;-81
2021/10/08 11:26:01;;;;;;;1.23;0.90;;;18.70;99.90;;;;;;5082993;28;20219;-81
2021/10/08 11:28:36;;;;;;;1.87;1.30;;;18.80;99.90;;;;;;5086662;28;20259;-82
2021/10/08 11:31:04;;;;;;;0.90;0.90;;;18.70;99.90;;;;;;5070156;28;20179;-83
2021/10/08 11:33:42;;;;;;;1.90;0.93;;;18.40;99.90;;;;;;5087212;28;20188;-83
2021/10/08 11:36:14;;;;;;;1.73;0.90;;;18.20;99.90;;;;;;5070141;28;20211;-82
2021/10/08 11:38:39;;;;;;;1.77;0.93;;;18.10;99.90;;;;;;5092738;28;20187;-83
2021/10/08 11:41:17;;;;;;;2.63;1.53;;;18.20;99.90;;;;;;5096996;28;20334;-83
2021/10/08 11:43:43;;;;;;;0.70;0.63;;;18.60;99.90;;;;;;5084131;28;20660;-82
2021/10/08 11:46:31;;;;;;;0.70;0.70;;;18.50;99.90;;;;;;5091513;28;20215;-81
2021/10/08 11:49:16;;;;;;;1.53;0.97;;;18.00;99.90;;;;;;5079276;28;20304;-83
2021/10/08 11:51:42;;;;;;;0.70;0.70;;;17.70;99.90;;;;;;5087018;28;20669;-83
2021/10/08 11:54:16;;;;;;;1.90;1.03;;;17.70;99.90;;;;;;5080337;28;20245;-83
2021/10/08 11:56:42;;;;;;;2.10;1.13;;;17.60;99.90;;;;;;5081246;28;20269;-82
2021/10/08 11:59:10;;;;;;;0.83;0.83;;;17.80;99.90;;;;;;5083235;28;20603;-83
2021/10/08 12:01:37;;;;;;;1.20;1.10;;;17.80;99.90;;;;;;5083499;28;20181;-83
2021/10/08 12:04:04;;;;;;;0.60;0.60;;;17.80;99.90;;;;;;5085649;28;20177;-83
2021/10/08 12:06:31;;;;;;;1.63;1.53;;;17.70;99.90;;;;;;5085970;28;20205;-83
2021/10/08 12:09:01;;;;;;;1.47;1.27;;;17.90;99.90;;;;;;5091953;28;20704;-83
2021/10/08 12:11:28;;;;;;;2.03;0.70;;;18.00;99.90;;;;;;5110795;28;20192;-83
2021/10/08 12:13:58;;;;;;;1.13;1.00;;;18.20;99.90;;;;;;5094392;28;20654;-83
2021/10/08 12:16:39;;;;;;;1.07;1.03;;;18.60;99.90;;;;;;5089090;28;20187;-84
2021/10/08 12:19:06;;;;;;;0.80;0.63;;;18.10;99.90;;;;;;5094586;28;20233;-83
2021/10/08 12:21:38;;;;;;;0.80;0.80;;;17.90;99.90;;;;;;5088155;28;20271;-83
2021/10/08 12:24:07;;;;;;;1.10;0.87;;;18.60;99.90;;;;;;5093223;28;20176;-83
2021/10/08 12:26:36;;;;;;;0.93;0.93;;;18.50;99.90;;;;;;5078807;28;20217;-82
2021/10/08 12:29:07;;;;;;;1.27;0.77;;;18.20;99.90;;;;;;5085316;28;20183;-81
2021/10/08 12:32:04;;;;;;;1.47;1.00;;;18.00;99.90;;;;;;5098127;28;20160;-82
2021/10/08 12:34:39;;;;;;;1.37;1.20;;;18.40;99.90;;;;;;5092210;28;20208;-82
2021/10/08 12:37:29;;;;;;;0.90;0.87;;;18.40;99.90;;;;;;5080791;28;20176;-83
2021/10/08 12:39:57;;;;;;;1.57;0.90;;;18.10;99.90;;;;;;5091785;28;20184;-83
2021/10/08 12:42:25;;;;;;;7.17;1.90;;;17.90;99.90;;;;;;5089810;28;20305;-82
2021/10/08 12:45:02;;;;;;;1.00;0.90;;;17.80;99.90;;;;;;5083847;28;20209;-82
2021/10/08 12:47:40;;;;;;;1.33;1.10;;;17.90;99.90;;;;;;5087214;28;20619;-82
2021/10/08 12:50:08;;;;;;;1.23;1.13;;;17.80;99.90;;;;;;5076164;28;20177;-82
2021/10/08 12:52:41;;;;;;;1.53;1.07;;;17.50;99.90;;;;;;5085326;28;20788;-82
2021/10/08 12:55:14;;;;;;;1.87;0.83;;;17.30;99.90;;;;;;5084915;28;20288;-82